createdAt,value
2023-01-06T00:00:03.525Z,99626.66
2023-01-06T00:05:29.165Z,99623.69
2023-01-06T00:10:32.138Z,99638.25
2023-01-06T00:15:38.105Z,99629.38
2023-01-06T00:20:42.442Z,99620.41
2023-01-06T00:25:51.029Z,99617.53
2023-01-06T00:30:54.337Z,99620.75
2023-01-06T00:36:01.284Z,99614.19
2023-01-06T00:41:05.889Z,99617.16
2023-01-06T00:46:08.772Z,99621.84
2023-01-06T00:51:13.154Z,99615.63
2023-01-06T00:56:16.044Z,99616.09
2023-01-06T01:01:19.591Z,99610.56
2023-01-06T01:06:23.955Z,99603.13
2023-01-06T01:11:44.927Z,99604.44
2023-01-06T01:16:49.788Z,99605.97
2023-01-06T01:21:54.554Z,99619.03
2023-01-06T01:26:57.586Z,99610.47
2023-01-06T01:32:00.993Z,99603.44
2023-01-06T01:37:05.594Z,99601.63
2023-01-06T01:42:16.809Z,99603.25
2023-01-06T01:47:24.957Z,99603.50
2023-01-06T01:52:29.873Z,99599.59
2023-01-06T01:57:36.947Z,99594.38
2023-01-06T02:02:40.761Z,99584.94
2023-01-06T02:07:45.607Z,99578.75
2023-01-06T02:12:51.523Z,99569.94
2023-01-06T02:18:30.648Z,99574.16
2023-01-06T02:24:35.054Z,99558.78
2023-01-06T02:30:32.681Z,99553.94
2023-01-06T02:36:00.907Z,99542.44
2023-01-06T02:41:14.087Z,99540.53
2023-01-06T02:46:28.874Z,99536.22
2023-01-06T02:51:40.114Z,99539.84
2023-01-06T02:56:50.154Z,99531.34
2023-01-06T03:01:55.592Z,99522.44
2023-01-06T03:07:03.476Z,99509.78
2023-01-06T03:12:13.717Z,99504.03
2023-01-06T03:17:16.730Z,99490.28
2023-01-06T03:22:23.061Z,99486.75
2023-01-06T03:27:27.808Z,99492.41
2023-01-06T03:32:40.442Z,99496.81
2023-01-06T03:37:54.605Z,99488.38
2023-01-06T03:43:13.349Z,99475.25
2023-01-06T03:48:27.367Z,99467.34
2023-01-06T03:53:38.660Z,99465.75
2023-01-06T03:58:42.742Z,99467.53
2023-01-06T04:03:48.185Z,99461.00
2023-01-06T04:08:52.716Z,99465.44
2023-01-06T04:13:56.069Z,99447.03
2023-01-06T04:18:59.136Z,99449.00
2023-01-06T04:24:03.954Z,99442.78
2023-01-06T04:29:07.204Z,99441.63
2023-01-06T04:34:10.640Z,99427.66
2023-01-06T04:39:15.060Z,99426.50
2023-01-06T04:44:17.911Z,99417.47
2023-01-06T04:49:20.813Z,99413.91
2023-01-06T04:54:25.076Z,99414.97
2023-01-06T04:59:27.992Z,99415.34
2023-01-06T05:04:40.062Z,99407.28
2023-01-06T05:09:51.252Z,99405.59
2023-01-06T05:14:54.161Z,99395.75
2023-01-06T05:19:57.099Z,99401.41
2023-01-06T05:25:01.314Z,99398.63
2023-01-06T05:30:04.493Z,99389.88
2023-01-06T05:35:08.151Z,99393.47
2023-01-06T05:40:12.999Z,99388.34
2023-01-06T05:45:15.971Z,99384.44
2023-01-06T05:50:19.565Z,99373.16
2023-01-06T05:55:23.858Z,99374.63
2023-01-06T06:00:26.833Z,99365.78
2023-01-06T06:05:29.709Z,99372.38
2023-01-06T06:10:33.963Z,99373.69
2023-01-06T06:15:37.236Z,99372.59
2023-01-06T06:20:40.134Z,99371.06
2023-01-06T06:25:44.331Z,99368.63
2023-01-06T06:30:47.245Z,99374.22
2023-01-06T06:35:57.558Z,99367.44
2023-01-06T06:41:01.864Z,99370.72
2023-01-06T06:46:05.035Z,99367.88
2023-01-06T06:51:09.488Z,99354.09
2023-01-06T06:56:14.931Z,99348.72
2023-01-06T07:01:20.417Z,99344.81
2023-01-06T07:06:27.961Z,99350.09
2023-01-06T07:11:33.014Z,99344.13
2023-01-06T07:16:35.876Z,99360.66
2023-01-06T07:21:39.444Z,99346.47
2023-01-06T07:26:43.683Z,99347.16
2023-01-06T07:31:46.590Z,99342.22
2023-01-06T07:36:49.544Z,99329.94
2023-01-06T07:41:53.823Z,99318.63
2023-01-06T07:46:56.670Z,99329.44
2023-01-06T07:51:59.673Z,99324.81
2023-01-06T07:57:04.024Z,99314.56
2023-01-06T08:02:07.250Z,99322.25
2023-01-06T08:07:10.187Z,99317.06
2023-01-06T08:12:14.468Z,99318.06
2023-01-06T08:17:17.407Z,99315.53
2023-01-06T08:22:20.306Z,99319.59
2023-01-06T08:27:24.558Z,99320.41
2023-01-06T08:32:27.428Z,99309.97
2023-01-06T08:37:31.913Z,99296.91
2023-01-06T08:42:36.225Z,99303.16
2023-01-06T08:47:39.143Z,99295.13
2023-01-06T08:52:42.059Z,99307.66
2023-01-06T08:57:46.384Z,99318.97
2023-01-06T09:02:49.339Z,99312.72
2023-01-06T09:07:52.209Z,99324.03
2023-01-06T09:12:56.485Z,99325.06
2023-01-06T09:17:59.425Z,99318.59
2023-01-06T09:23:02.365Z,99330.47
2023-01-06T09:28:06.716Z,99330.69
2023-01-06T09:33:09.655Z,99343.19
2023-01-06T09:38:12.608Z,99328.50
2023-01-06T09:43:29.886Z,99307.50
2023-01-06T09:48:37.989Z,99295.97
2023-01-06T09:53:45.694Z,99300.00
2023-01-06T09:58:53.908Z,99289.84
2023-01-06T10:03:58.445Z,99286.66
2023-01-06T10:09:19.052Z,99277.72
2023-01-06T10:14:38.639Z,99279.66
2023-01-06T10:19:59.932Z,99266.31
2023-01-06T10:25:12.502Z,99259.75
2023-01-06T10:30:21.437Z,99259.69
2023-01-06T10:35:27.832Z,99264.22
2023-01-06T10:40:32.282Z,99255.13
2023-01-06T10:45:40.220Z,99252.06
2023-01-06T10:50:43.279Z,99244.59
2023-01-06T10:55:50.619Z,99237.88
2023-01-06T11:01:01.014Z,99228.97
2023-01-06T11:06:08.932Z,99217.25
2023-01-06T11:11:27.268Z,99218.47
2023-01-06T11:16:34.134Z,99228.19
2023-01-06T11:21:42.280Z,99221.22
2023-01-06T11:26:47.080Z,99222.13
2023-01-06T11:31:51.760Z,99212.06
2023-01-06T11:36:54.809Z,99202.91
2023-01-06T11:42:04.248Z,99214.88
2023-01-06T11:47:13.894Z,99209.34
2023-01-06T11:52:25.707Z,99211.34
2023-01-06T11:57:36.667Z,99211.59
2023-01-06T12:02:51.875Z,99218.06
2023-01-06T12:07:58.659Z,99221.53
2023-01-06T12:13:01.713Z,99214.28
2023-01-06T12:18:13.948Z,99219.81
2023-01-06T12:23:23.151Z,99216.19
2023-01-06T12:28:31.460Z,99224.72
2023-01-06T12:33:41.005Z,99225.50
2023-01-06T12:38:53.936Z,99214.09
2023-01-06T12:44:01.480Z,99227.75
2023-01-06T12:49:12.373Z,99237.84
2023-01-06T12:54:21.432Z,99238.69
2023-01-06T12:59:36.305Z,99234.63
2023-01-06T13:05:06.400Z,99239.88
2023-01-06T13:10:24.566Z,99233.41
2023-01-06T13:15:30.132Z,99230.75
2023-01-06T13:20:38.533Z,99230.13
2023-01-06T13:26:14.582Z,99214.97
2023-01-06T13:31:33.480Z,99212.38
2023-01-06T13:37:04.176Z,99217.00
2023-01-06T13:42:09.400Z,99223.31
2023-01-06T13:47:15.890Z,99222.31
2023-01-06T13:52:23.984Z,99212.94
2023-01-06T13:57:32.627Z,99216.00
2023-01-06T14:03:14.617Z,99220.25
2023-01-06T14:08:21.122Z,99226.53
2023-01-06T14:13:26.496Z,99238.22
2023-01-06T14:18:39.517Z,99223.34
2023-01-06T14:23:53.850Z,99235.06
2023-01-06T14:29:03.064Z,99233.03
2023-01-06T14:34:11.797Z,99245.91
2023-01-06T14:39:26.679Z,99251.34
2023-01-06T14:44:44.398Z,99245.13
2023-01-06T14:49:55.524Z,99247.16
2023-01-06T14:55:00.777Z,99255.63
2023-01-06T15:00:08.547Z,99254.81
2023-01-06T15:05:19.402Z,99264.09
2023-01-06T15:10:23.847Z,99262.88
2023-01-06T15:15:28.953Z,99269.31
2023-01-06T15:20:35.228Z,99261.28
2023-01-06T15:25:40.874Z,99268.94
2023-01-06T15:30:50.606Z,99282.25
2023-01-06T15:35:55.118Z,99279.03
2023-01-06T15:41:00.056Z,99280.81
2023-01-06T15:46:05.737Z,99286.84
2023-01-06T15:51:13.101Z,99291.50
2023-01-06T15:56:21.784Z,99296.78
2023-01-06T16:01:25.399Z,99298.19
2023-01-06T16:06:30.974Z,99299.41
2023-01-06T16:11:52.802Z,99310.09
2023-01-06T16:17:03.697Z,99304.84
2023-01-06T16:22:09.655Z,99329.09
2023-01-06T16:27:13.932Z,99321.00
2023-01-06T16:32:29.046Z,99323.84
2023-01-06T16:37:34.035Z,99338.75
2023-01-06T16:42:42.684Z,99327.88
2023-01-06T16:47:46.525Z,99341.97
2023-01-06T16:53:06.047Z,99336.31
2023-01-06T16:58:17.547Z,99338.94
2023-01-06T17:03:22.432Z,99332.91
2023-01-06T17:08:29.089Z,99341.16
2023-01-06T17:13:36.107Z,99357.91
2023-01-06T17:18:49.308Z,99363.75
2023-01-06T17:23:55.895Z,99359.50
2023-01-06T17:29:01.731Z,99361.72
2023-01-06T17:34:13.407Z,99374.22
2023-01-06T17:39:23.782Z,99370.59
2023-01-06T17:44:35.023Z,99374.19
2023-01-06T17:49:37.914Z,99368.97
2023-01-06T17:54:58.061Z,99374.97
2023-01-06T18:00:03.653Z,99381.22
2023-01-06T18:05:55.601Z,99384.22
2023-01-06T18:11:15.426Z,99393.09
2023-01-06T18:16:28.014Z,99393.50
2023-01-06T18:21:39.257Z,99405.94
2023-01-06T18:26:47.637Z,99400.16
2023-01-06T18:31:53.557Z,99415.63
2023-01-06T18:36:58.606Z,99420.03
2023-01-06T18:42:14.095Z,99417.41
2023-01-06T18:47:22.634Z,99417.63
2023-01-06T18:52:35.423Z,99424.50
2023-01-06T18:57:38.318Z,99423.66
2023-01-06T19:02:42.702Z,99419.16
2023-01-06T19:07:45.626Z,99413.56
2023-01-06T19:12:48.543Z,99434.13
2023-01-06T19:17:53.986Z,99442.56
2023-01-06T19:22:57.551Z,99428.28
2023-01-06T19:28:01.648Z,99433.50
2023-01-06T19:33:31.402Z,99432.84
2023-01-06T19:38:39.400Z,99434.44
2023-01-06T19:43:42.305Z,99442.97
2023-01-06T19:48:47.011Z,99453.88
2023-01-06T19:53:52.214Z,99455.13
2023-01-06T19:58:59.626Z,99447.84
2023-01-06T20:04:03.986Z,99455.47
2023-01-06T20:09:06.927Z,99453.06
2023-01-06T20:14:11.053Z,99455.19
2023-01-06T20:19:16.651Z,99473.31
2023-01-06T20:24:19.635Z,99475.91
2023-01-06T20:29:22.575Z,99485.06
2023-01-06T20:34:27.015Z,99487.47
2023-01-06T20:39:30.595Z,99482.34
2023-01-06T20:44:33.487Z,99482.78
2023-01-06T20:49:38.820Z,99484.97
2023-01-06T20:54:41.942Z,99490.88
2023-01-06T20:59:44.835Z,99490.09
2023-01-06T21:04:49.225Z,99499.84
2023-01-06T21:09:52.196Z,99497.34
2023-01-06T21:14:55.131Z,99501.50
2023-01-06T21:20:00.144Z,99499.50
2023-01-06T21:25:03.116Z,99498.72
2023-01-06T21:30:06.908Z,99506.50
2023-01-06T21:35:11.600Z,99506.19
2023-01-06T21:40:15.023Z,99504.09
2023-01-06T21:45:18.013Z,99496.31
2023-01-06T21:50:25.458Z,99495.47
2023-01-06T21:55:29.946Z,99493.28
2023-01-06T22:00:32.898Z,99501.56
2023-01-06T22:05:37.214Z,99496.47
2023-01-06T22:10:42.819Z,99505.94
2023-01-06T22:15:45.812Z,99499.75
2023-01-06T22:20:50.189Z,99505.13
2023-01-06T22:25:53.086Z,99504.56
2023-01-06T22:30:56.388Z,99502.75
2023-01-06T22:36:00.744Z,99505.75
2023-01-06T22:41:03.687Z,99508.97
2023-01-06T22:46:06.970Z,99509.41
2023-01-06T22:51:11.390Z,99510.34
2023-01-06T22:56:14.313Z,99511.03
2023-01-06T23:01:17.698Z,99514.75
2023-01-06T23:06:22.280Z,99515.81
2023-01-06T23:11:27.592Z,99511.41
2023-01-06T23:16:30.760Z,99503.00
2023-01-06T23:21:36.244Z,99512.47
2023-01-06T23:26:41.228Z,99512.69
2023-01-06T23:31:46.319Z,99500.84
2023-01-06T23:36:50.645Z,99494.84
2023-01-06T23:41:55.166Z,99495.91
2023-01-06T23:46:58.049Z,99501.97
2023-01-06T23:52:02.246Z,99496.47
2023-01-06T23:57:05.211Z,99491.03
